createdAt,value
2023-03-10T00:02:35.144Z,98338.86
2023-03-10T00:06:38.674Z,98333.21
2023-03-10T00:10:42.194Z,98330.58
2023-03-10T00:14:45.380Z,98325.36
2023-03-10T00:18:49.090Z,98323.55
2023-03-10T00:22:52.389Z,98322.67
2023-03-10T00:26:55.645Z,98322.69
2023-03-10T00:31:03.083Z,98319.61
2023-03-10T00:35:06.874Z,98316.46
2023-03-10T00:39:11.849Z,98305.65
2023-03-10T00:43:15.441Z,98293.91
2023-03-10T00:47:18.563Z,98280.38
2023-03-10T00:51:22.464Z,98272.25
2023-03-10T00:55:25.835Z,98267.03
2023-03-10T00:59:34.935Z,98257.47
2023-03-10T01:03:44.450Z,98247.57
2023-03-10T01:07:47.508Z,98236.55
2023-03-10T01:11:50.796Z,98232.23
2023-03-10T01:15:53.981Z,98226.67
2023-03-10T01:19:57.363Z,98219.83
2023-03-10T01:24:01.397Z,98210.57
2023-03-10T01:28:04.967Z,98204.10
2023-03-10T01:32:08.039Z,98194.95
2023-03-10T01:36:14.211Z,98188.36
2023-03-10T01:40:18.857Z,98187.96
2023-03-10T01:44:22.403Z,98186.80
2023-03-10T01:48:25.795Z,98174.63
2023-03-10T01:52:33.138Z,98158.91
2023-03-10T01:56:38.116Z,98149.64
2023-03-10T02:00:41.934Z,98148.90
2023-03-10T02:04:50.469Z,98140.75
2023-03-10T02:08:57.783Z,98135.38
2023-03-10T02:13:01.222Z,98129.13
2023-03-10T02:17:07.415Z,98118.66
2023-03-10T02:21:16.516Z,98110.91
2023-03-10T02:25:27.489Z,98102.45
2023-03-10T02:29:52.479Z,98080.34
2023-03-10T02:34:01.631Z,98071.54
2023-03-10T02:38:05.261Z,98067.38
2023-03-10T02:42:10.257Z,98066.58
2023-03-10T02:46:14.080Z,98062.97
2023-03-10T02:50:18.360Z,98066.98
2023-03-10T02:54:21.411Z,98067.20
2023-03-10T02:58:42.637Z,98062.14
2023-03-10T03:02:48.697Z,98053.05
2023-03-10T03:06:55.351Z,98037.61
2023-03-10T03:10:58.583Z,98031.08
2023-03-10T03:15:02.003Z,98019.98
2023-03-10T03:19:05.228Z,98011.52
2023-03-10T03:23:09.187Z,98008.55
2023-03-10T03:27:12.405Z,98000.05
2023-03-10T03:31:21.981Z,97997.55
2023-03-10T03:35:30.705Z,97995.38
2023-03-10T03:39:33.900Z,97993.44
2023-03-10T03:43:37.137Z,97988.71
2023-03-10T03:47:40.879Z,97981.41
2023-03-10T03:51:43.999Z,97970.45
2023-03-10T03:55:47.322Z,97973.75
2023-03-10T03:59:51.910Z,97967.91
2023-03-10T04:03:55.536Z,97962.01
2023-03-10T04:07:59.908Z,97953.50
2023-03-10T04:12:04.068Z,97944.23
2023-03-10T04:16:08.229Z,97934.52
2023-03-10T04:20:14.392Z,97937.44
2023-03-10T04:24:18.164Z,97933.08
2023-03-10T04:28:21.742Z,97932.41
2023-03-10T04:32:25.208Z,97938.41
2023-03-10T04:36:28.654Z,97935.42
2023-03-10T04:40:31.879Z,97939.69
2023-03-10T04:44:36.093Z,97943.43
2023-03-10T04:48:40.406Z,97940.42
2023-03-10T04:52:46.952Z,97934.70
2023-03-10T04:56:50.325Z,97932.95
2023-03-10T05:01:02.872Z,97928.19
2023-03-10T05:05:07.423Z,97928.06
2023-03-10T05:09:10.706Z,97925.67
2023-03-10T05:13:14.306Z,97909.86
2023-03-10T05:17:17.670Z,97899.40
2023-03-10T05:21:22.480Z,97896.58
2023-03-10T05:25:25.757Z,97893.88
2023-03-10T05:29:28.887Z,97889.35
2023-03-10T05:33:32.847Z,97877.70
2023-03-10T05:37:41.603Z,97868.02
2023-03-10T05:41:45.268Z,97861.29
2023-03-10T05:45:55.984Z,97857.44
2023-03-10T05:49:59.185Z,97855.48
2023-03-10T05:54:06.381Z,97852.65
2023-03-10T05:58:09.570Z,97850.94
2023-03-10T06:02:13.097Z,97846.23
2023-03-10T06:06:16.292Z,97842.65
2023-03-10T06:10:19.593Z,97840.54
2023-03-10T06:14:22.946Z,97840.08
2023-03-10T06:18:26.914Z,97837.35
2023-03-10T06:22:31.348Z,97846.00
2023-03-10T06:26:34.642Z,97833.73
2023-03-10T06:30:37.745Z,97829.06
2023-03-10T06:34:40.945Z,97819.95
2023-03-10T06:38:44.324Z,97811.09
2023-03-10T06:42:48.181Z,97806.50
2023-03-10T06:46:51.328Z,97806.23
2023-03-10T06:50:54.947Z,97799.13
2023-03-10T06:54:58.055Z,97790.36
2023-03-10T06:59:01.211Z,97787.55
2023-03-10T07:03:04.358Z,97784.84
2023-03-10T07:07:07.480Z,97792.34
2023-03-10T07:11:11.048Z,97791.65
2023-03-10T07:29:58.064Z,97807.63
2023-03-10T07:35:02.063Z,97814.69
2023-03-10T07:39:33.347Z,97812.82
2023-03-10T07:44:03.149Z,97817.92
2023-03-10T07:48:06.388Z,97821.02
2023-03-10T07:52:09.458Z,97815.92
2023-03-10T07:56:14.253Z,97813.55
2023-03-10T08:00:17.867Z,97818.95
2023-03-10T08:04:21.125Z,97819.57
2023-03-10T08:08:24.297Z,97823.77
2023-03-10T08:12:27.315Z,97827.65
2023-03-10T08:16:30.353Z,97823.17
2023-03-10T08:20:35.597Z,97823.77
2023-03-10T08:24:39.393Z,97817.69
2023-03-10T08:28:42.979Z,97815.14
2023-03-10T08:32:46.053Z,97815.05
2023-03-10T08:36:49.427Z,97817.58
2023-03-10T08:41:25.825Z,97817.61
2023-03-10T08:45:29.177Z,97816.34
2023-03-10T08:49:32.569Z,97810.88
2023-03-10T08:53:36.966Z,97804.48
2023-03-10T08:57:39.989Z,97803.15
2023-03-10T09:01:43.047Z,97803.65
2023-03-10T09:05:46.705Z,97805.96
2023-03-10T09:09:49.869Z,97794.48
2023-03-10T09:13:53.146Z,97789.69
2023-03-10T09:17:56.161Z,97794.23
2023-03-10T09:21:59.794Z,97799.64
2023-03-10T09:26:16.317Z,97795.38
2023-03-10T09:30:19.630Z,97796.81
2023-03-10T09:34:23.721Z,97793.76
2023-03-10T09:38:26.856Z,97792.79
2023-03-10T09:42:40.509Z,97793.23
2023-03-10T09:47:04.856Z,97788.58
2023-03-10T09:51:31.740Z,97796.21
2023-03-10T09:55:47.334Z,97785.04
2023-03-10T09:59:53.683Z,97782.23
2023-03-10T10:04:16.528Z,97779.45
2023-03-10T10:09:13.326Z,97776.75
2023-03-10T10:13:17.883Z,97782.91
2023-03-10T10:18:08.338Z,97782.89
2023-03-10T10:22:27.571Z,97782.59
2023-03-10T10:26:30.683Z,97786.17
2023-03-10T10:30:41.382Z,97777.97
2023-03-10T10:49:22.913Z,97768.36
2023-03-10T10:53:43.343Z,97768.81
2023-03-10T11:24:52.844Z,97759.89
2023-03-10T11:29:38.610Z,97752.28
2023-03-10T11:34:11.112Z,97737.88
2023-03-10T11:38:19.147Z,97727.62
2023-03-10T11:42:38.416Z,97729.86
2023-03-10T11:47:35.325Z,97726.77
2023-03-10T11:56:52.220Z,97723.30
2023-03-10T12:00:56.018Z,97725.91
2023-03-10T12:05:08.272Z,97706.65
2023-03-10T12:09:46.526Z,97721.00
2023-03-10T12:18:59.490Z,97725.92
2023-03-10T12:23:12.410Z,97722.86
2023-03-10T12:27:15.420Z,97730.33
2023-03-10T12:31:57.844Z,97726.63
2023-03-10T12:36:27.582Z,97729.41
2023-03-10T12:40:53.473Z,97727.98
2023-03-10T12:45:24.385Z,97727.98
2023-03-10T12:49:33.795Z,97727.67
2023-03-10T12:54:47.020Z,97725.65
2023-03-10T12:59:10.980Z,97719.04
2023-03-10T13:03:48.829Z,97713.98
2023-03-10T13:08:01.383Z,97712.16
2023-03-10T13:12:09.127Z,97719.46
2023-03-10T13:16:20.835Z,97709.86
2023-03-10T13:20:24.164Z,97700.04
2023-03-10T13:24:33.594Z,97701.12
2023-03-10T13:28:37.521Z,97701.70
2023-03-10T13:32:41.373Z,97697.26
2023-03-10T13:36:44.730Z,97693.71
2023-03-10T13:40:49.769Z,97694.63
2023-03-10T13:44:54.842Z,97690.91
2023-03-10T13:49:06.564Z,97693.20
2023-03-10T13:53:26.290Z,97689.86
2023-03-10T13:57:37.421Z,97689.28
2023-03-10T14:01:46.672Z,97692.88
2023-03-10T14:05:49.821Z,97685.83
2023-03-10T14:10:05.209Z,97684.62
2023-03-10T14:14:10.841Z,97679.14
2023-03-10T14:18:13.934Z,97683.27
2023-03-10T14:22:30.795Z,97676.37
2023-03-10T14:26:34.256Z,97672.27
2023-03-10T14:30:39.027Z,97663.42
2023-03-10T14:34:42.214Z,97663.90
2023-03-10T14:38:46.213Z,97666.73
2023-03-10T14:42:52.112Z,97667.79
2023-03-10T14:46:56.365Z,97660.45
2023-03-10T14:50:59.515Z,97653.95
2023-03-10T14:55:02.518Z,97654.42
2023-03-10T14:59:06.789Z,97650.89
2023-03-10T15:03:12.028Z,97650.62
2023-03-10T15:07:15.456Z,97641.11
2023-03-10T15:11:30.395Z,97635.83
2023-03-10T15:15:42.860Z,97625.89
2023-03-10T15:19:46.316Z,97622.54
2023-03-10T15:23:49.658Z,97620.55
2023-03-10T15:27:53.467Z,97617.00
2023-03-10T15:42:33.662Z,97611.48
2023-03-10T15:47:43.959Z,97604.68
2023-03-10T15:51:47.235Z,97607.55
2023-03-10T15:55:52.588Z,97601.13
2023-03-10T15:59:55.709Z,97601.96
2023-03-10T16:04:01.812Z,97598.63
2023-03-10T16:08:08.723Z,97593.74
2023-03-10T16:12:12.942Z,97594.64
2023-03-10T16:16:41.137Z,97594.12
2023-03-10T16:20:44.353Z,97600.09
2023-03-10T16:24:47.289Z,97592.55
2023-03-10T16:28:53.099Z,97587.80
2023-03-10T16:33:10.703Z,97589.33
2023-03-10T16:37:13.750Z,97588.35
2023-03-10T16:41:17.984Z,97596.48
2023-03-10T16:45:20.960Z,97600.21
2023-03-10T16:49:48.854Z,97604.87
2023-03-10T16:53:53.651Z,97598.10
2023-03-10T16:57:57.357Z,97596.54
2023-03-10T17:02:01.353Z,97596.63
2023-03-10T17:06:04.774Z,97601.06
2023-03-10T17:10:08.506Z,97606.19
2023-03-10T17:14:14.387Z,97599.45
2023-03-10T17:18:19.731Z,97596.58
2023-03-10T17:22:23.700Z,97592.39
2023-03-10T17:26:27.714Z,97588.58
2023-03-10T17:30:31.256Z,97586.34
2023-03-10T17:34:36.015Z,97583.91
2023-03-10T17:38:42.416Z,97578.73
2023-03-10T17:42:46.134Z,97579.56
2023-03-10T17:46:50.548Z,97586.28
2023-03-10T17:50:53.975Z,97591.84
2023-03-10T17:54:57.585Z,97597.56
2023-03-10T17:59:01.094Z,97589.20
2023-03-10T18:03:04.652Z,97590.23
2023-03-10T18:07:08.184Z,97587.13
2023-03-10T18:11:11.591Z,97582.12
2023-03-10T18:15:15.132Z,97580.14
2023-03-10T18:19:21.352Z,97584.88
2023-03-10T18:23:24.987Z,97581.15
2023-03-10T18:27:29.229Z,97585.06
2023-03-10T18:31:34.607Z,97583.18
2023-03-10T18:35:39.162Z,97586.33
2023-03-10T18:39:45.484Z,97586.80
2023-03-10T18:43:49.116Z,97585.93
2023-03-10T18:47:52.685Z,97587.05
2023-03-10T18:51:56.189Z,97583.86
2023-03-10T18:56:00.333Z,97577.52
2023-03-10T19:00:07.669Z,97567.95
2023-03-10T19:04:11.014Z,97564.84
2023-03-10T19:08:14.827Z,97566.02
2023-03-10T19:12:18.237Z,97560.06
2023-03-10T19:16:22.086Z,97551.78
2023-03-10T19:20:25.509Z,97553.63
2023-03-10T19:24:29.376Z,97553.19
2023-03-10T19:28:32.734Z,97550.27
2023-03-10T19:32:36.212Z,97546.48
2023-03-10T19:36:39.581Z,97538.13
2023-03-10T19:40:46.918Z,97531.63
2023-03-10T19:44:50.406Z,97523.77
2023-03-10T19:48:54.520Z,97525.51
2023-03-10T19:52:58.233Z,97522.65
2023-03-10T19:57:01.871Z,97522.70
2023-03-10T20:01:06.420Z,97521.42
2023-03-10T20:05:11.133Z,97525.11
2023-03-10T20:09:14.456Z,97521.87
2023-03-10T20:13:18.090Z,97517.05
2023-03-10T20:17:21.648Z,97520.40
2023-03-10T20:21:26.045Z,97521.66
2023-03-10T20:25:29.546Z,97525.70
2023-03-10T20:29:34.368Z,97526.08
2023-03-10T20:33:37.780Z,97520.08
2023-03-10T20:37:42.217Z,97517.92
2023-03-10T20:41:46.080Z,97514.48
2023-03-10T20:45:52.123Z,97512.37
2023-03-10T20:49:56.532Z,97513.70
2023-03-10T20:54:00.034Z,97518.80
2023-03-10T20:58:03.752Z,97510.27
2023-03-10T21:02:07.975Z,97503.98
2023-03-10T21:06:11.939Z,97494.99
2023-03-10T21:10:15.990Z,97488.58
2023-03-10T21:14:19.959Z,97491.09
2023-03-10T21:18:23.422Z,97487.83
2023-03-10T21:22:30.594Z,97489.80
2023-03-10T21:26:36.114Z,97489.89
2023-03-10T21:30:41.642Z,97492.88
2023-03-10T21:34:46.383Z,97490.00
2023-03-10T21:38:51.382Z,97488.08
2023-03-10T21:42:54.865Z,97493.16
2023-03-10T21:46:58.284Z,97491.33
2023-03-10T21:51:01.541Z,97495.52
2023-03-10T21:55:06.020Z,97496.34
2023-03-10T21:59:09.501Z,97491.85
2023-03-10T22:03:12.807Z,97489.75
2023-03-10T22:07:16.044Z,97486.53
2023-03-10T22:11:19.704Z,97477.70
2023-03-10T22:15:26.370Z,97477.05
2023-03-10T22:19:29.618Z,97475.14
2023-03-10T22:23:32.946Z,97478.05
2023-03-10T22:27:36.385Z,97475.48
2023-03-10T22:31:39.732Z,97469.71
2023-03-10T22:35:45.351Z,97469.47
2023-03-10T22:39:48.736Z,97466.79
2023-03-10T22:43:53.714Z,97468.24
2023-03-10T22:48:00.904Z,97465.94
2023-03-10T22:52:07.164Z,97467.73
2023-03-10T22:56:10.497Z,97460.17
2023-03-10T23:00:19.859Z,97458.67
2023-03-10T23:04:23.274Z,97460.47
2023-03-10T23:08:27.096Z,97459.24
2023-03-10T23:12:30.437Z,97461.44
2023-03-10T23:16:36.638Z,97460.18
2023-03-10T23:20:41.272Z,97459.08
2023-03-10T23:24:44.633Z,97455.98
2023-03-10T23:28:48.027Z,97460.77
2023-03-10T23:32:51.962Z,97456.33
2023-03-10T23:36:57.646Z,97460.44
2023-03-10T23:41:01.114Z,97460.22
2023-03-10T23:45:06.629Z,97465.54
2023-03-10T23:49:09.918Z,97462.98
2023-03-10T23:53:15.032Z,97464.83
2023-03-10T23:57:18.328Z,97465.94
